Terminal Aerodrome Forecast
Issued by NWS Sterling, VA

Home | Current Version | Previous Version | Text Only | Print | Product List | Glossary On
Versions: 1 2 3 4 5 6 7 8 9 10 11 12 13 14 15 16 17 18 19 20 21
000
FTUS41 KLWX 101736
TAFBWI
TAF
KBWI 101736Z 1018/1124 28012G18KT P6SM FEW040 SCT140
     FM102200 29009KT P6SM SCT250
     FM110200 29005KT P6SM FEW150
     FM110700 29004KT P6SM BKN100
     FM111500 13005KT P6SM OVC100=

USA.gov is the U.S. government's official web portal to all federal, state and local government web resources and services.